Time;durP1;ratioP1;P1;durP2;ratioP2;P2;SDS_P1;SDS_P2;PMS_P1;PMS_P2;Temp;Humidity;BMP_temperature;BMP_pressure;BME280_temperature;BME280_humidity;BME280_pressure;Samples;Min_cycle;Max_cycle;Signal;HPM_P1;HPM_P2
2022/03/12 00:01:34;;;;;;;8.82;4.10;;;-1.30;1.00;;;-1.13;49.92;100562.94;4835686;29;114197;-86
2022/03/12 00:08:12;;;;;;;7.80;4.25;;;-1.30;1.00;;;-1.17;49.92;100567.88;4832638;29;129217;-86
2022/03/12 00:11:03;;;;;;;8.38;4.38;;;-1.30;1.00;;;-1.20;50.18;100572.78;4819278;29;118702;-88
2022/03/12 00:14:13;;;;;;;10.48;4.60;;;-1.30;1.00;;;-1.15;50.09;100573.78;4834976;29;114116;-85
2022/03/12 00:23:30;;;;;;;8.73;4.25;;;-1.30;1.00;;;-1.27;50.42;100567.47;4832499;29;118573;-86
2022/03/12 00:34:13;;;;;;;8.15;4.63;;;-1.40;1.00;;;-1.30;51.38;100551.91;4818027;29;129656;-85
2022/03/12 00:43:32;;;;;;;8.80;4.53;;;-1.30;1.00;;;-1.30;50.74;100562.56;4832891;29;130068;-86
2022/03/12 00:46:10;;;;;;;;;;;-1.30;1.00;;;-1.38;51.23;100550.25;4843046;29;130101;-86
2022/03/12 00:48:52;;;;;;;9.43;4.28;;;-1.30;1.00;;;-1.32;51.92;100548.63;4849901;29;118714;-84
2022/03/12 00:55:07;;;;;;;10.20;4.82;;;-1.30;1.00;;;-1.38;51.61;100528.97;4852869;28;131666;-87
2022/03/12 00:57:54;;;;;;;11.70;4.68;;;-1.30;1.00;;;-1.36;51.61;100520.75;4836450;29;128916;-86
2022/03/12 01:00:45;;;;;;;8.40;4.47;;;-1.30;1.00;;;-1.45;51.72;100528.97;4821508;29;120079;-86
2022/03/12 01:03:15;;;;;;;8.85;4.88;;;-1.30;1.00;;;-1.41;51.86;100523.25;4821170;29;116653;-86
2022/03/12 01:09:09;;;;;;;10.43;4.90;;;-1.40;1.00;;;-1.36;51.36;100515.44;4822324;29;128701;-87
2022/03/12 01:11:45;;;;;;;10.98;4.90;;;-1.40;1.00;;;-1.36;51.49;100510.91;4822196;29;118507;-88
2022/03/12 01:14:26;;;;;;;12.18;4.90;;;-1.40;1.00;;;-1.31;51.95;100512.97;4837585;29;113909;-85
2022/03/12 01:20:16;;;;;;;10.60;5.28;;;-1.40;1.00;;;-1.34;51.99;100508.06;4852574;29;129622;-85
2022/03/12 01:26:14;;;;;;;11.25;4.63;;;-1.30;1.00;;;-1.38;51.53;100501.53;4880163;28;115823;-85
2022/03/12 01:33:01;;;;;;;10.70;5.32;;;-1.30;1.00;;;-1.50;52.52;100488.81;4853007;28;129807;-88
2022/03/12 01:36:07;;;;;;;11.35;5.13;;;-1.30;1.00;;;-1.43;52.87;100485.31;4864576;28;118286;-86
2022/03/12 01:38:57;;;;;;;8.93;4.60;;;-1.40;1.00;;;-1.44;52.84;100487.19;4836844;29;113441;-85
2022/03/12 01:41:44;;;;;;;8.70;4.75;;;-1.40;1.00;;;-1.38;52.28;100486.34;4836062;29;129460;-86
2022/03/12 01:44:21;;;;;;;9.75;4.80;;;-1.40;1.00;;;-1.47;52.73;100488.41;4805483;29;129199;-84
2022/03/12 01:46:54;;;;;;;10.98;5.78;;;-1.40;1.00;;;-1.37;52.80;100471.19;4852924;28;118161;-86
2022/03/12 01:49:26;;;;;;;9.63;4.72;;;-1.40;1.00;;;-1.42;52.60;100471.00;4834237;29;114710;-86
2022/03/12 01:52:08;;;;;;;10.45;4.93;;;-1.40;1.00;;;-1.40;52.44;100487.56;4801849;29;129145;-85
2022/03/12 01:54:40;;;;;;;9.93;4.43;;;-1.40;1.00;;;-1.38;52.87;100474.88;4819468;29;129466;-85
2022/03/12 01:57:18;;;;;;;12.15;5.00;;;-1.40;1.00;;;-1.31;52.38;100483.66;4790342;29;117907;-84
2022/03/12 02:03:32;;;;;;;9.52;5.15;;;-1.50;1.00;;;-1.37;52.31;100472.03;4834597;29;129359;-85
2022/03/12 02:06:05;;;;;;;11.98;5.60;;;-1.40;1.00;;;-1.39;52.77;100467.91;4789711;29;130071;-85
2022/03/12 02:08:41;;;;;;;10.02;5.10;;;-1.40;1.00;;;-1.34;52.70;100460.94;4820127;29;117315;-87
2022/03/12 02:11:13;;;;;;;13.13;5.75;;;-1.40;1.00;;;-1.31;52.40;100468.53;4804323;29;113595;-85
2022/03/12 02:13:44;;;;;;;11.50;5.75;;;-1.40;1.00;;;-1.32;52.49;100458.88;4803751;29;129574;-85
2022/03/12 02:16:20;;;;;;;10.70;5.63;;;-1.40;1.00;;;-1.42;53.37;100461.16;4789030;29;128781;-85
2022/03/12 02:19:28;;;;;;;9.20;5.50;;;-1.40;1.00;;;-1.46;52.80;100462.63;4805324;29;117761;-85
2022/03/12 02:22:19;;;;;;;10.65;5.53;;;-1.40;1.00;;;-1.55;53.19;100459.34;4806627;29;114413;-85
2022/03/12 02:25:20;;;;;;;10.82;5.93;;;-1.40;1.00;;;-1.49;53.08;100455.84;4773944;29;130927;-84
2022/03/12 02:28:25;;;;;;;11.45;6.05;;;-1.40;1.00;;;-1.55;53.34;100459.34;4804592;29;130113;-86
2022/03/12 02:31:16;;;;;;;11.70;5.15;;;-1.50;1.00;;;-1.64;53.01;100456.09;4808771;29;119029;-85
2022/03/12 02:40:17;;;;;;;11.13;5.70;;;-1.60;1.00;;;-1.73;53.80;100446.69;4833953;29;129852;-87
2022/03/12 02:43:32;;;;;;;9.73;4.55;;;-1.70;1.00;;;-1.73;53.72;100445.84;4831487;29;118902;-86
2022/03/12 02:46:12;;;;;;;11.40;5.60;;;-1.70;1.00;;;-1.82;53.65;100443.41;4819924;29;114863;-86
2022/03/12 02:48:57;;;;;;;11.38;5.40;;;-1.70;1.00;;;-1.90;54.40;100437.47;4835160;29;129105;-85
2022/03/12 02:54:40;;;;;;;13.80;6.00;;;-1.70;1.00;;;-1.86;54.21;100431.53;4822483;29;118630;-86
2022/03/12 02:58:14;;;;;;;10.32;4.55;;;-1.80;1.00;;;-1.90;54.25;100429.50;4811685;29;115433;-88
2022/03/12 03:04:39;;;;;;;11.75;5.22;;;-1.80;1.00;;;-1.89;54.31;100420.50;4834169;29;129654;-85
2022/03/12 03:11:10;;;;;;;13.25;5.43;;;-1.80;1.00;;;-2.02;55.45;100410.69;4836017;29;115426;-85
2022/03/12 03:17:19;;;;;;;10.18;5.13;;;-1.80;1.00;;;-1.85;55.19;100408.44;4836707;29;128986;-86
2022/03/12 03:23:46;;;;;;;12.57;5.80;;;-1.70;1.00;;;-1.74;54.71;100406.97;4850443;28;114126;-84
2022/03/12 03:33:55;;;;;;;10.75;5.28;;;-1.60;1.00;;;-1.53;53.24;100398.72;4820364;29;118175;-86
2022/03/12 03:37:02;;;;;;;10.75;4.93;;;-1.60;1.00;;;-1.53;53.96;100409.38;4835086;29;113499;-85
2022/03/12 03:39:46;;;;;;;13.10;5.30;;;-1.50;1.00;;;-1.49;53.19;100404.47;4835699;29;130246;-86
2022/03/12 03:42:35;;;;;;;12.55;5.93;;;-1.50;1.00;;;-1.54;52.18;100404.25;4834676;29;129038;-87
2022/03/12 03:48:47;;;;;;;10.05;5.22;;;-1.40;1.00;;;-1.49;51.55;100388.47;4819277;29;114953;-87
2022/03/12 03:51:43;;;;;;;13.32;5.78;;;-1.40;1.00;;;-1.53;50.62;100393.38;4828405;29;128962;-87
2022/03/12 04:12:57;;;;;;;12.05;5.00;;;-1.20;1.00;;;-1.36;47.75;100396.41;4835718;29;118833;-87
2022/03/12 04:16:45;;;;;;;11.57;5.45;;;-1.20;1.00;;;-1.37;47.07;100401.94;4849669;29;114425;-85
2022/03/12 04:26:37;;;;;;;12.70;5.78;;;-1.10;1.00;;;-1.19;46.10;100393.28;4864067;28;118944;-87
2022/03/12 04:33:07;;;;;;;14.90;5.97;;;-1.10;1.00;;;-1.06;44.23;100392.38;4837319;29;129611;-86
2022/03/12 04:53:46;;;;;;;9.38;4.85;;;-0.90;1.00;;;-0.85;42.04;100373.41;4852033;29;118332;-87
2022/03/12 04:57:02;;;;;;;12.00;4.88;;;-0.90;1.00;;;-0.77;42.00;100375.81;4867862;28;115204;-84
2022/03/12 05:07:14;;;;;;;11.48;5.05;;;-0.80;1.00;;;-0.70;39.99;100361.63;4842602;29;117490;-82
2022/03/12 05:10:09;;;;;;;9.02;4.65;;;-0.70;1.00;;;-0.55;40.34;100351.47;4821817;29;115283;-88
2022/03/12 05:12:43;;;;;;;9.95;4.32;;;-0.70;1.00;;;-0.59;39.63;100355.63;4790721;29;129099;-85
2022/03/12 05:15:15;;;;;;;10.90;4.75;;;-0.60;1.00;;;-0.43;40.03;100357.75;4802690;29;127656;-86
2022/03/12 05:17:51;;;;;;;10.73;4.30;;;-0.60;1.00;;;-0.56;38.83;100366.66;4807270;29;118113;-87
2022/03/12 05:20:29;;;;;;;9.25;4.10;;;-0.60;1.00;;;-0.48;38.97;100362.06;4821971;29;114250;-86
2022/03/12 05:41:13;;;;;;;14.60;6.70;;;-0.30;1.00;;;-0.15;38.47;100350.34;4865293;29;130972;-85
2022/03/12 05:43:46;;;;;;;10.43;5.07;;;-0.20;1.00;;;-0.35;38.75;100345.16;4853261;29;128378;-84
2022/03/12 05:46:26;;;;;;;9.18;4.70;;;-0.20;1.00;;;-0.23;39.38;100348.75;4852559;29;117056;-84
2022/03/12 05:49:05;;;;;;;10.75;5.07;;;-0.20;1.00;;;-0.05;38.57;100346.13;4851841;29;113197;-83
2022/03/12 05:51:37;;;;;;;14.35;5.70;;;-0.20;1.00;;;0.14;38.90;100338.13;4832937;29;129253;-83
2022/03/12 05:54:29;;;;;;;11.80;4.80;;;-0.10;1.00;;;-0.10;38.44;100337.94;4863227;28;128303;-83
2022/03/12 05:57:00;;;;;;;11.63;6.07;;;-0.20;1.00;;;0.07;38.92;100329.38;4850992;29;118601;-83
2022/03/12 05:59:36;;;;;;;13.88;7.15;;;-0.10;1.00;;;0.12;39.08;100326.84;4878477;28;114119;-85
2022/03/12 06:02:06;;;;;;;14.18;6.22;;;-0.10;1.00;;;0.22;38.11;100324.50;4845246;29;128030;-84
2022/03/12 06:04:38;;;;;;;15.20;8.70;;;0.00;1.00;;;0.20;38.78;100317.72;4845269;29;128492;-85
2022/03/12 06:07:09;;;;;;;16.58;6.63;;;-0.10;1.00;;;-0.07;39.34;100326.03;4838006;29;117235;-84
2022/03/12 06:09:49;;;;;;;12.32;5.47;;;-0.10;1.00;;;0.08;38.88;100307.81;4796314;29;113717;-84
2022/03/12 06:12:24;;;;;;;15.18;8.25;;;-0.10;1.00;;;0.15;38.87;100305.84;4820454;29;129333;-84
2022/03/12 06:15:08;;;;;;;16.00;8.05;;;-0.10;1.00;;;0.16;38.99;100307.50;4832534;29;127806;-84
2022/03/12 06:18:01;;;;;;;12.43;6.63;;;0.00;1.00;;;0.31;38.86;100315.16;4828980;29;117285;-84
2022/03/12 06:28:13;;;;;;;9.80;4.72;;;0.10;1.00;;;0.22;39.19;100313.81;4844941;29;128869;-84
2022/03/12 06:46:23;;;;;;;10.75;5.28;;;0.40;1.00;;;0.65;39.23;100334.22;4856988;29;118039;-86
2022/03/12 06:50:11;;;;;;;13.73;4.45;;;0.50;1.00;;;0.58;39.46;100320.16;4835165;29;113835;-85
2022/03/12 07:24:36;;;;;;;9.90;5.35;;;0.70;1.00;;;1.14;39.70;100311.97;4819322;29;128082;-88
2022/03/12 07:27:05;;;;;;;10.38;5.85;;;1.00;1.00;;;1.14;39.84;100315.47;4848689;29;118474;-87
2022/03/12 07:29:34;;;;;;;13.70;6.55;;;0.90;1.00;;;1.36;39.05;100302.38;4819866;29;113955;-86
2022/03/12 07:32:20;;;;;;;11.00;6.45;;;1.10;1.00;;;1.40;39.39;100302.72;4819537;29;128232;-86
2022/03/12 07:41:41;;;;;;;10.68;5.93;;;0.80;1.00;;;1.48;39.38;100304.22;4799532;29;114160;-86
2022/03/12 07:44:41;;;;;;;9.60;5.83;;;1.10;1.00;;;1.53;40.32;100301.69;4820948;29;129650;-86
2022/03/12 07:47:11;;;;;;;11.65;5.13;;;1.20;1.00;;;1.61;39.33;100299.47;4827489;29;127791;-85
2022/03/12 07:49:41;;;;;;;10.68;5.57;;;1.20;1.00;;;1.67;39.67;100303.09;4821556;29;118093;-85
2022/03/12 07:52:12;;;;;;;10.10;4.85;;;1.30;1.00;;;1.29;40.09;100301.66;4819489;29;113898;-85
2022/03/12 07:54:53;;;;;;;10.55;4.95;;;1.00;1.00;;;1.41;40.48;100299.81;4804330;29;130290;-87
2022/03/12 07:57:26;;;;;;;14.15;6.30;;;1.10;1.00;;;1.46;40.60;100301.00;4840091;29;129110;-86
2022/03/12 08:00:03;;;;;;;9.25;5.25;;;1.20;1.00;;;1.38;41.00;100294.91;4867455;29;118151;-84
2022/03/12 08:02:44;;;;;;;15.05;5.78;;;1.20;1.00;;;1.20;41.51;100297.69;4851441;29;114241;-86
2022/03/12 08:05:27;;;;;;;15.15;6.35;;;1.20;1.00;;;1.45;41.23;100289.47;4850336;28;128871;-87
2022/03/12 08:08:02;;;;;;;12.35;6.55;;;1.30;1.00;;;1.57;40.70;100292.16;4836160;29;128229;-87
2022/03/12 08:11:24;;;;;;;14.10;7.13;;;1.30;1.00;;;1.67;41.02;100276.34;4834520;29;116972;-86
2022/03/12 08:13:25;;;;;;;16.63;6.75;;;1.30;1.00;;;2.15;40.50;100288.63;4865625;29;114987;-86
2022/03/12 08:16:04;;;;;;;14.95;7.18;;;1.60;1.00;;;2.97;39.31;100281.28;4837844;29;127466;-86
2022/03/12 08:18:40;;;;;;;14.88;7.40;;;2.00;1.00;;;3.10;38.83;100266.78;4837086;29;127604;-88
2022/03/12 08:21:12;;;;;;;17.25;8.57;;;2.20;1.00;;;3.57;37.52;100262.94;4836140;29;117846;-88
2022/03/12 08:23:46;;;;;;;19.13;8.95;;;2.20;1.00;;;2.90;38.06;100271.78;4848518;29;114406;-86
2022/03/12 08:26:19;;;;;;;11.73;7.00;;;2.00;1.00;;;2.69;38.93;100272.22;4836661;29;127819;-88
2022/03/12 08:28:53;;;;;;;13.93;7.20;;;1.80;1.00;;;2.43;39.29;100262.91;4846924;29;127731;-88
2022/03/12 08:32:09;;;;;;;13.47;7.73;;;1.80;1.00;;;2.54;39.50;100269.28;4813850;29;117682;-83
2022/03/12 08:34:40;;;;;;;16.60;8.05;;;2.00;1.00;;;2.41;40.15;100259.66;4821995;29;113949;-88
2022/03/12 08:37:09;;;;;;;19.70;10.48;;;1.90;1.00;;;2.94;39.66;100256.84;4850266;29;129626;-86
2022/03/12 08:39:38;;;;;;;14.75;9.02;;;2.20;1.00;;;3.57;38.29;100266.44;4836301;29;128701;-86
2022/03/12 08:49:35;;;;;;;12.70;6.30;;;2.20;1.00;;;2.83;39.61;100267.38;4833883;29;128978;-87
2022/03/12 09:03:58;;;;;;;11.57;6.22;;;2.60;1.00;;;2.58;39.96;100269.63;4816633;29;128746;-87
2022/03/12 09:13:51;;;;;;;10.80;5.32;;;2.30;1.00;;;3.35;40.12;100262.88;4766016;29;114225;-87
2022/03/12 09:16:21;;;;;;;15.20;6.25;;;2.50;1.00;;;3.42;39.25;100271.56;4773843;29;129272;-86
2022/03/12 09:19:05;;;;;;;9.75;5.43;;;2.60;1.00;;;3.01;39.87;100268.25;4784357;29;128108;-85
2022/03/12 09:21:38;;;;;;;12.40;5.90;;;2.40;1.00;;;2.83;40.80;100282.66;4826054;29;116869;-85
2022/03/12 09:24:11;;;;;;;14.20;5.95;;;2.40;1.00;;;2.45;41.51;100271.53;4797398;29;114196;-86
2022/03/12 09:26:42;;;;;;;12.65;6.53;;;2.10;1.00;;;3.15;40.48;100269.53;4776631;29;128425;-85
2022/03/12 09:29:13;;;;;;;13.40;6.63;;;2.50;1.00;;;2.95;40.71;100270.00;4776154;29;129528;-90
2022/03/12 09:34:42;;;;;;;11.98;6.05;;;2.50;1.00;;;2.56;41.41;100250.28;4789972;29;114366;-87
2022/03/12 09:37:14;;;;;;;10.95;6.30;;;2.10;1.00;;;2.79;41.40;100254.69;4845985;29;129396;-87
2022/03/12 09:39:45;;;;;;;10.43;6.32;;;2.10;1.00;;;2.51;42.27;100243.78;4843315;29;129042;-86
2022/03/12 09:42:13;;;;;;;11.95;6.05;;;2.10;1.00;;;2.64;41.84;100249.91;4843261;29;117588;-86
2022/03/12 09:44:44;;;;;;;13.70;6.30;;;2.10;1.00;;;2.54;42.51;100241.66;4860969;29;113722;-85
2022/03/12 09:47:19;;;;;;;12.90;5.95;;;2.20;1.00;;;2.32;42.46;100250.34;4848441;29;128395;-83
2022/03/12 09:49:56;;;;;;;16.55;6.30;;;2.10;1.00;;;2.85;42.28;100245.69;4821527;29;128495;-85
2022/03/12 09:52:29;;;;;;;11.35;6.15;;;2.30;1.00;;;2.81;41.98;100242.69;4853915;29;118426;-85
2022/03/12 09:55:00;;;;;;;12.93;6.57;;;2.30;1.00;;;2.54;42.84;100230.94;4851425;29;113486;-86
2022/03/12 09:57:34;;;;;;;12.65;6.68;;;2.20;1.00;;;2.80;42.66;100235.69;4838723;29;129429;-86
2022/03/12 10:00:06;;;;;;;12.52;6.15;;;2.30;1.00;;;3.07;41.74;100232.41;4838340;29;128347;-87
2022/03/12 10:03:00;;;;;;;14.30;6.70;;;2.50;1.00;;;3.26;41.15;100237.50;4836490;29;118563;-84
2022/03/12 10:05:38;;;;;;;15.75;7.15;;;2.70;1.00;;;2.96;42.44;100234.09;4853051;29;114876;-86
2022/03/12 10:08:16;;;;;;;17.05;6.28;;;2.50;1.00;;;3.58;40.82;100229.66;4822850;29;130582;-87
2022/03/12 10:10:51;;;;;;;14.15;7.10;;;2.70;1.00;;;3.67;41.10;100238.13;4821943;29;128048;-87
2022/03/12 10:13:45;;;;;;;18.05;8.23;;;2.80;1.00;;;4.24;40.13;100237.78;4834259;29;117860;-86
2022/03/12 10:16:14;;;;;;;12.65;6.30;;;3.10;1.00;;;3.56;40.72;100232.59;4821997;29;114402;-86
2022/03/12 10:18:45;;;;;;;13.35;6.90;;;2.90;1.00;;;3.94;40.11;100233.66;4823500;29;130757;-86
2022/03/12 10:21:21;;;;;;;15.75;8.25;;;3.00;1.00;;;4.14;40.11;100230.41;4825701;29;127788;-87
2022/03/12 10:23:53;;;;;;;21.57;11.67;;;3.10;1.00;;;4.13;39.99;100227.97;4824427;29;116802;-87
2022/03/12 10:26:24;;;;;;;17.45;7.75;;;3.40;1.00;;;4.56;40.00;100237.03;4826328;29;114724;-86
2022/03/12 10:28:54;;;;;;;10.27;5.65;;;3.50;1.00;;;3.85;40.26;100237.81;4822440;29;127853;-86
2022/03/12 10:31:24;;;;;;;17.80;5.57;;;3.20;1.00;;;3.59;41.16;100232.09;4852548;29;128998;-88
2022/03/12 10:34:18;;;;;;;13.52;7.20;;;3.00;1.00;;;3.75;41.18;100218.88;4825118;29;118884;-87
2022/03/12 10:36:57;;;;;;;17.42;9.35;;;3.10;1.00;;;4.70;39.47;100228.56;4840610;29;113569;-87
2022/03/12 10:39:36;;;;;;;12.63;7.32;;;3.50;1.00;;;4.21;40.59;100227.53;4839821;29;128011;-85
2022/03/12 10:42:08;;;;;;;11.20;6.95;;;3.30;1.00;;;4.07;41.12;100223.59;4856889;29;128654;-86
2022/03/12 10:44:38;;;;;;;11.32;6.22;;;3.20;1.00;;;4.05;41.71;100228.38;4856488;29;117922;-86
2022/03/12 10:47:20;;;;;;;15.38;8.80;;;3.30;1.00;;;4.98;40.53;100214.81;4856980;29;113204;-86
2022/03/12 10:50:11;;;;;;;10.93;6.32;;;3.70;1.00;;;4.56;40.61;100217.41;4856910;29;128959;-86
2022/03/12 10:52:49;;;;;;;16.70;7.32;;;3.80;1.00;;;4.92;40.74;100213.16;4811454;29;128504;-87
2022/03/12 10:55:33;;;;;;;11.38;6.55;;;3.80;1.00;;;4.60;40.96;100219.34;4824921;29;118385;-86
2022/03/12 10:58:07;;;;;;;10.82;5.60;;;3.70;1.00;;;4.13;42.35;100203.78;4841263;29;113549;-86
2022/03/12 11:00:41;;;;;;;13.80;6.47;;;3.50;1.00;;;4.55;42.26;100211.22;4847326;29;129048;-86
2022/03/12 11:03:16;;;;;;;12.30;6.30;;;3.60;1.00;;;3.85;43.22;100205.59;4854722;29;129082;-84
2022/03/12 11:05:49;;;;;;;12.90;6.82;;;3.30;1.00;;;3.48;44.65;100203.50;4841770;29;117641;-86
2022/03/12 11:08:28;;;;;;;16.02;7.18;;;3.10;1.00;;;3.48;45.38;100198.13;4855240;29;115760;-86
2022/03/12 11:14:06;;;;;;;11.40;5.45;;;3.10;1.00;;;3.68;45.84;100199.47;4884014;28;127934;-86
2022/03/12 11:16:46;;;;;;;13.15;6.57;;;3.30;1.00;;;4.14;46.24;100186.59;4871134;29;117986;-86
2022/03/12 11:19:17;;;;;;;14.75;7.22;;;3.40;1.00;;;4.29;45.45;100196.72;4870395;28;114268;-85
2022/03/12 11:21:52;;;;;;;9.20;4.93;;;3.60;1.00;;;4.09;46.12;100191.91;4838838;29;129406;-85
2022/03/12 11:24:49;;;;;;;14.30;5.78;;;3.40;1.00;;;3.70;46.53;100191.97;4855450;29;128805;-87
2022/03/12 11:27:43;;;;;;;13.02;6.10;;;3.20;1.00;;;3.94;46.46;100193.38;4840352;29;116430;-86
2022/03/12 11:30:27;;;;;;;11.98;6.20;;;3.30;1.00;;;3.85;46.53;100202.91;4884805;28;113789;-85
2022/03/12 11:33:07;;;;;;;11.30;6.10;;;3.10;1.00;;;3.84;46.83;100201.28;4868170;29;129149;-86
2022/03/12 11:36:25;;;;;;;11.85;5.78;;;3.20;1.00;;;3.86;47.68;100192.97;4852629;29;127852;-86
2022/03/12 11:38:56;;;;;;;14.45;6.65;;;3.20;1.00;;;3.96;47.20;100187.75;4853395;29;117355;-86
2022/03/12 11:41:28;;;;;;;10.65;5.35;;;3.30;1.00;;;3.90;47.64;100194.91;4853610;29;112959;-85
2022/03/12 11:44:02;;;;;;;13.02;6.00;;;3.30;1.00;;;3.78;48.18;100194.22;4852271;29;128352;-85
2022/03/12 11:46:33;;;;;;;11.07;5.15;;;3.30;1.00;;;3.82;47.90;100203.41;4852773;29;128983;-88
2022/03/12 11:49:07;;;;;;;13.35;5.50;;;3.10;1.00;;;3.82;47.97;100200.72;4869039;29;117494;-86
2022/03/12 11:51:40;;;;;;;9.65;4.90;;;3.10;1.00;;;3.33;49.63;100195.22;4853545;29;113525;-87
2022/03/12 11:54:10;;;;;;;11.98;6.07;;;2.80;1.00;;;3.18;50.11;100196.63;4866320;29;129090;-86
2022/03/12 11:56:41;;;;;;;16.65;8.32;;;2.80;1.00;;;3.62;49.60;100192.41;4852393;29;127566;-84
2022/03/12 11:59:10;;;;;;;16.05;6.45;;;3.10;1.00;;;3.45;50.53;100179.84;4867726;29;117528;-86
2022/03/12 12:01:40;;;;;;;13.05;5.75;;;3.00;1.00;;;3.38;51.18;100192.59;4836829;29;118545;-88
2022/03/12 12:04:10;;;;;;;11.10;5.97;;;3.00;1.00;;;3.62;51.29;100190.53;4850782;29;128653;-87
2022/03/12 12:06:50;;;;;;;12.18;5.47;;;3.10;1.00;;;4.06;48.91;100192.41;4882641;28;129524;-87
2022/03/12 12:09:24;;;;;;;14.00;5.70;;;3.30;1.00;;;4.00;49.08;100177.31;4852856;29;117916;-86
2022/03/12 12:11:58;;;;;;;10.55;6.05;;;3.30;1.00;;;3.75;50.12;100181.31;4868903;29;117986;-85
2022/03/12 12:14:57;;;;;;;9.93;6.03;;;3.20;1.00;;;4.05;50.11;100185.41;4866707;29;128072;-89
2022/03/12 12:17:32;;;;;;;11.60;5.85;;;3.40;1.00;;;4.23;49.28;100184.28;4866993;29;128267;-86
2022/03/12 12:20:06;;;;;;;14.38;6.00;;;3.40;1.00;;;4.30;49.43;100183.03;4850093;29;117666;-87
2022/03/12 12:25:31;;;;;;;12.40;6.50;;;3.80;1.00;;;4.80;47.40;100182.91;4834508;29;129920;-86
2022/03/12 12:28:15;;;;;;;16.50;9.15;;;3.70;1.00;;;4.47;48.70;100182.09;4830239;29;127297;-86
2022/03/12 12:30:50;;;;;;;13.45;6.43;;;3.60;1.00;;;4.30;49.35;100180.34;4849407;29;119022;-86
2022/03/12 12:33:38;;;;;;;10.27;5.70;;;3.40;1.00;;;4.07;50.24;100183.31;4833955;29;118218;-87
2022/03/12 12:36:15;;;;;;;8.98;4.70;;;3.50;1.00;;;3.57;51.28;100185.91;4840945;29;128164;-86
2022/03/12 12:39:10;;;;;;;9.10;5.45;;;3.10;1.00;;;2.92;53.32;100167.81;4857770;29;129473;-88
2022/03/12 12:42:11;;;;;;;11.13;5.85;;;2.80;1.00;;;2.92;53.92;100173.16;4866727;29;118763;-87
2022/03/12 12:44:54;;;;;;;11.52;6.45;;;2.80;1.00;;;2.72;55.06;100177.13;4849729;29;117802;-85
2022/03/12 12:47:29;;;;;;;12.15;5.50;;;2.70;1.00;;;2.82;55.36;100163.06;4866935;29;129270;-86
2022/03/12 12:50:33;;;;;;;12.32;6.78;;;2.80;1.00;;;2.76;55.58;100170.22;4841293;29;127954;-86
2022/03/12 12:53:22;;;;;;;11.73;6.63;;;2.60;1.00;;;2.81;55.64;100173.00;4835853;28;118813;-86
2022/03/12 12:55:51;;;;;;;10.73;5.43;;;2.70;1.00;;;3.21;55.18;100166.63;4880337;28;117550;-86
2022/03/12 13:09:57;;;;;;;9.63;5.18;;;2.90;1.00;;;3.53;57.00;100163.31;4814043;29;120526;-87
2022/03/12 13:15:52;;;;;;;12.48;5.90;;;3.10;1.00;;;4.15;55.57;100164.03;4812187;29;127952;-85
2022/03/12 13:38:44;;;;;;;14.50;7.82;;;3.10;1.00;;;3.87;57.46;100152.44;4798192;29;129323;-86
2022/03/12 13:41:21;;;;;;;14.13;8.68;;;3.30;1.00;;;4.42;55.92;100157.88;4779486;29;127987;-86
2022/03/12 13:48:05;;;;;;;18.08;8.77;;;3.80;1.00;;;4.87;55.52;100156.63;4801737;29;118610;-87
2022/03/12 13:50:49;;;;;;;13.77;7.68;;;4.00;1.00;;;4.59;55.19;100158.56;4801680;29;129435;-86
2022/03/12 13:53:28;;;;;;;14.32;8.02;;;3.80;1.00;;;4.43;56.13;100154.13;4797393;29;128446;-87
2022/03/12 13:56:06;;;;;;;12.57;6.53;;;3.80;1.00;;;4.22;57.11;100161.16;4811062;29;119121;-88
2022/03/12 13:59:05;;;;;;;14.40;6.95;;;3.60;1.00;;;4.11;58.06;100158.38;4801022;29;117568;-88
2022/03/12 14:01:38;;;;;;;13.18;6.88;;;3.60;1.00;;;4.20;57.73;100156.03;4786962;29;129249;-89
2022/03/12 14:04:34;;;;;;;15.50;6.03;;;3.60;1.00;;;4.34;57.11;100147.56;4802835;29;128011;-87
2022/03/12 14:07:18;;;;;;;10.88;5.97;;;3.70;1.00;;;4.47;56.49;100155.22;4791267;29;120073;-85
2022/03/12 14:23:31;;;;;;;13.07;6.35;;;4.00;1.00;;;4.64;56.31;100155.94;4812748;29;117482;-87
2022/03/12 14:32:36;;;;;;;14.80;7.63;;;3.60;1.00;;;3.73;59.81;100149.34;4813107;29;119367;-88
2022/03/12 14:41:38;;;;;;;;;;;3.30;1.00;;;3.10;62.13;100164.03;4815386;29;129195;-86
2022/03/12 14:44:15;;;;;;;13.13;7.00;;;3.10;1.00;;;3.03;63.01;100158.84;4826091;29;119035;-84
2022/03/12 14:47:07;;;;;;;13.02;7.25;;;3.00;1.00;;;2.99;62.85;100160.38;4847376;28;118612;-84
2022/03/12 14:49:56;;;;;;;13.68;8.00;;;3.00;1.00;;;2.85;63.39;100163.41;4846557;29;128124;-87
2022/03/12 15:02:47;;;;;;;16.38;7.68;;;2.80;1.00;;;2.94;64.78;100165.69;4847436;29;127989;-88
2022/03/12 15:05:38;;;;;;;19.00;8.05;;;2.90;1.00;;;2.90;64.39;100160.00;4832596;29;127126;-85
2022/03/12 15:09:15;;;;;;;14.55;7.50;;;2.80;1.00;;;2.67;65.11;100160.97;4857996;29;117758;-87
2022/03/12 15:18:21;;;;;;;10.90;6.10;;;2.60;1.00;;;2.18;67.04;100163.31;4853048;29;129640;-82
2022/03/12 15:20:57;;;;;;;13.52;7.05;;;2.50;1.00;;;2.29;66.77;100159.75;4848455;29;117382;-87
2022/03/12 15:31:23;;;;;;;10.30;6.32;;;2.30;1.00;;;2.16;66.98;100156.31;4878602;28;129893;-86
2022/03/12 15:34:10;;;;;;;15.63;7.18;;;2.30;1.00;;;2.09;67.75;100168.25;4851316;29;118270;-87
2022/03/12 15:39:58;;;;;;;13.20;6.32;;;2.20;1.00;;;1.87;68.98;100170.75;4879247;28;127857;-86
2022/03/12 15:42:32;;;;;;;12.77;7.82;;;2.10;1.00;;;1.70;70.01;100168.81;4849801;29;127253;-87
2022/03/12 15:45:02;;;;;;;15.63;8.48;;;2.10;1.00;;;1.65;69.97;100171.38;4862367;29;117751;-87
2022/03/12 15:47:54;;;;;;;18.20;8.68;;;2.10;1.00;;;1.75;69.88;100165.44;4867707;29;117867;-85
2022/03/12 15:50:47;;;;;;;13.05;8.13;;;2.10;1.00;;;1.67;70.63;100165.78;4881239;28;128774;-85
2022/03/12 15:53:42;;;;;;;17.88;8.90;;;2.00;1.00;;;1.73;70.31;100168.34;4850922;29;127902;-86
2022/03/12 15:56:17;;;;;;;12.18;7.28;;;2.00;1.00;;;1.76;70.49;100167.06;4860857;29;118580;-84
2022/03/12 15:58:50;;;;;;;18.15;10.82;;;1.90;1.00;;;1.64;71.29;100169.78;4848707;29;118831;-85
2022/03/12 16:01:28;;;;;;;17.65;9.48;;;1.90;1.00;;;1.74;71.02;100169.97;4848182;29;129300;-86
2022/03/12 16:04:01;;;;;;;20.13;9.90;;;1.90;1.00;;;1.81;71.26;100169.84;4849966;29;127814;-85
2022/03/12 16:06:47;;;;;;;16.50;8.13;;;1.90;1.00;;;1.73;71.36;100176.38;4820789;29;119365;-86
2022/03/12 16:13:26;;;;;;;15.00;7.53;;;1.90;1.00;;;1.73;71.83;100184.41;4875493;28;127968;-85
2022/03/12 16:16:12;;;;;;;10.80;6.32;;;1.80;1.00;;;1.50;72.81;100179.09;4849221;29;128747;-85
2022/03/12 16:18:45;;;;;;;13.75;7.50;;;1.80;1.00;;;1.55;73.03;100188.03;4864104;29;117517;-88
2022/03/12 16:21:37;;;;;;;10.70;5.95;;;1.80;1.00;;;1.57;72.99;100193.16;4866116;29;117221;-84
2022/03/12 16:24:18;;;;;;;12.65;7.43;;;1.80;1.00;;;1.65;72.74;100191.97;4849559;29;128825;-88
2022/03/12 16:30:02;;;;;;;13.98;6.53;;;1.80;1.00;;;1.70;72.81;100192.91;4884215;28;119021;-86
2022/03/12 16:35:40;;;;;;;12.25;6.80;;;1.80;1.00;;;1.68;73.19;100197.66;4868233;29;129023;-85
2022/03/12 16:38:32;;;;;;;13.77;7.82;;;1.80;1.00;;;1.56;73.56;100204.91;4838111;29;127928;-86
2022/03/12 16:41:09;;;;;;;14.60;8.10;;;1.70;1.00;;;1.69;73.78;100199.31;4853650;29;117586;-85
2022/03/12 16:43:49;;;;;;;18.65;9.30;;;1.80;1.00;;;1.73;73.59;100194.28;4881404;28;118029;-86
2022/03/12 16:49:15;;;;;;;15.82;8.05;;;1.70;1.00;;;1.68;73.86;100189.63;4841115;29;128263;-85
2022/03/12 16:51:59;;;;;;;16.20;7.80;;;1.70;1.00;;;1.67;73.66;100196.06;4869644;29;117906;-84
2022/03/12 16:54:47;;;;;;;16.08;7.75;;;1.70;1.00;;;1.61;74.55;100192.44;4851965;29;118306;-85
2022/03/12 16:57:24;;;;;;;17.35;9.10;;;1.60;1.00;;;1.56;74.78;100191.53;4837666;29;128346;-85
2022/03/12 17:00:03;;;;;;;14.60;7.15;;;1.60;1.00;;;1.38;75.79;100187.94;4884472;28;128820;-84
2022/03/12 17:02:34;;;;;;;12.80;6.75;;;1.60;1.00;;;1.51;75.73;100186.06;4837188;29;117585;-84
2022/03/12 17:05:06;;;;;;;18.20;9.00;;;1.60;1.00;;;1.58;75.69;100189.44;4852168;29;118570;-84
2022/03/12 17:07:44;;;;;;;12.48;7.88;;;1.60;1.00;;;1.40;75.95;100191.22;4867832;28;128766;-85
2022/03/12 17:11:25;;;;;;;15.50;7.88;;;1.60;1.00;;;1.38;76.14;100203.97;4848972;29;128127;-86